createdAt,value
2023-04-28T00:00:39.472Z,19.36
2023-04-28T00:02:01.504Z,18.81
2023-04-28T00:03:25.815Z,18.93
2023-04-28T00:05:01.925Z,19.51
2023-04-28T00:06:26.236Z,19.94
2023-04-28T00:07:49.046Z,20.38
2023-04-28T00:09:15.420Z,19.77
2023-04-28T00:10:37.892Z,19.85
2023-04-28T00:12:11.368Z,19.10
2023-04-28T00:13:37.940Z,20.31
2023-04-28T00:15:09.130Z,20.12
2023-04-28T00:16:43.225Z,20.29
2023-04-28T00:18:16.898Z,19.75
2023-04-28T00:19:38.992Z,19.51
2023-04-28T00:21:01.728Z,19.46
2023-04-28T00:22:30.806Z,19.61
2023-04-28T00:24:03.931Z,20.24
2023-04-28T00:25:27.851Z,20.09
2023-04-28T00:26:52.452Z,20.71
2023-04-28T00:28:18.400Z,20.04
2023-04-28T00:29:51.053Z,20.36
2023-04-28T00:31:13.025Z,21.73
2023-04-28T00:32:42.612Z,21.36
2023-04-28T00:34:15.747Z,20.54
2023-04-28T00:35:45.830Z,21.15
2023-04-28T00:37:12.164Z,20.32
2023-04-28T00:38:34.467Z,19.68
2023-04-28T00:39:58.097Z,19.82
2023-04-28T00:41:24.390Z,21.16
2023-04-28T00:42:46.240Z,20.24
2023-04-28T00:44:07.977Z,19.53
2023-04-28T00:45:32.710Z,19.78
2023-04-28T00:47:05.995Z,20.36
2023-04-28T00:48:29.784Z,20.32
2023-04-28T00:50:05.664Z,20.64
2023-04-28T00:51:41.698Z,20.29
2023-04-28T00:53:14.726Z,19.79
2023-04-28T00:54:44.468Z,20.94
2023-04-28T00:56:06.613Z,24.94
2023-04-28T00:57:28.607Z,22.99
2023-04-28T00:58:52.445Z,22.38
2023-04-28T01:00:25.802Z,21.85
2023-04-28T01:01:47.565Z,21.27
2023-04-28T01:03:20.841Z,22.26
2023-04-28T01:04:42.891Z,22.22
2023-04-28T01:06:04.731Z,19.83
2023-04-28T01:07:38.560Z,21.44
2023-04-28T01:09:08.349Z,20.53
2023-04-28T01:10:43.434Z,21.89
2023-04-28T01:12:07.516Z,22.03
2023-04-28T01:13:47.921Z,21.79
2023-04-28T01:15:13.947Z,22.12
2023-04-28T01:16:38.842Z,24.49
2023-04-28T01:18:00.601Z,23.94
2023-04-28T01:19:23.432Z,24.01
2023-04-28T01:20:46.312Z,25.31
2023-04-28T01:22:19.823Z,23.72
2023-04-28T01:23:53.427Z,32.73
2023-04-28T01:25:23.012Z,45.16
2023-04-28T01:26:52.117Z,36.88
2023-04-28T01:28:25.784Z,27.24
2023-04-28T01:29:58.971Z,25.40
2023-04-28T01:31:32.624Z,24.30
2023-04-28T01:33:04.360Z,25.57
2023-04-28T01:34:28.255Z,26.08
2023-04-28T01:36:11.456Z,23.47
2023-04-28T01:37:35.629Z,24.47
2023-04-28T01:39:08.822Z,26.80
2023-04-28T01:40:50.295Z,26.93
2023-04-28T01:42:24.070Z,28.96
2023-04-28T01:43:56.595Z,27.63
2023-04-28T01:45:22.741Z,25.40
2023-04-28T01:47:07.762Z,25.47
2023-04-28T01:48:44.264Z,27.46
2023-04-28T01:50:07.363Z,26.70
2023-04-28T01:51:43.281Z,24.72
2023-04-28T01:53:20.589Z,26.36
2023-04-28T01:54:47.670Z,24.59
2023-04-28T01:56:11.462Z,23.72
2023-04-28T01:57:35.836Z,23.17
2023-04-28T01:58:59.671Z,24.47
2023-04-28T02:00:33.682Z,24.50
2023-04-28T02:01:57.940Z,23.97
2023-04-28T02:03:28.784Z,23.84
2023-04-28T02:04:58.178Z,23.55
2023-04-28T02:06:19.852Z,24.38
2023-04-28T02:07:44.007Z,23.70
2023-04-28T02:09:17.513Z,23.13
2023-04-28T02:10:56.629Z,22.59
2023-04-28T02:12:18.632Z,22.33
2023-04-28T02:13:42.676Z,23.74
2023-04-28T02:15:17.914Z,22.54
2023-04-28T02:16:40.198Z,23.02
2023-04-28T02:18:13.221Z,24.59
2023-04-28T02:19:38.645Z,23.65
2023-04-28T02:21:00.548Z,22.45
2023-04-28T02:22:41.674Z,23.85
2023-04-28T02:24:11.383Z,24.18
2023-04-28T02:25:36.050Z,22.94
2023-04-28T02:26:58.983Z,23.55
2023-04-28T02:28:32.367Z,22.99
2023-04-28T02:30:05.506Z,23.82
2023-04-28T02:31:34.660Z,22.98
2023-04-28T02:32:56.420Z,21.80
2023-04-28T02:34:33.493Z,24.05
2023-04-28T02:36:07.942Z,23.53
2023-04-28T02:37:35.101Z,22.09
2023-04-28T02:38:59.414Z,22.14
2023-04-28T02:40:22.222Z,21.69
2023-04-28T02:41:53.732Z,21.96
2023-04-28T02:43:27.254Z,22.21
2023-04-28T02:44:56.317Z,23.17
2023-04-28T02:46:41.373Z,21.98
2023-04-28T02:48:19.565Z,22.99
2023-04-28T02:49:41.822Z,21.59
2023-04-28T02:51:10.793Z,21.95
2023-04-28T02:52:35.607Z,21.09
2023-04-28T02:53:57.182Z,33.94
2023-04-28T02:55:26.386Z,27.58
2023-04-28T02:57:06.676Z,29.62
2023-04-28T02:58:31.033Z,21.95
2023-04-28T02:59:53.102Z,21.61
2023-04-28T03:01:17.389Z,20.81
2023-04-28T03:02:39.467Z,20.96
2023-04-28T03:04:03.417Z,20.67
2023-04-28T03:05:40.462Z,19.64
2023-04-28T03:07:04.542Z,19.06
2023-04-28T03:08:36.429Z,19.20
2023-04-28T03:10:00.945Z,19.51
2023-04-28T03:11:25.662Z,19.75
2023-04-28T03:12:49.511Z,20.83
2023-04-28T03:14:13.782Z,19.22
2023-04-28T03:15:54.682Z,20.12
2023-04-28T03:17:16.224Z,20.47
2023-04-28T03:18:38.837Z,20.36
2023-04-28T03:20:00.301Z,19.80
2023-04-28T03:21:26.378Z,20.44
2023-04-28T03:22:50.650Z,20.79
2023-04-28T03:24:22.036Z,20.59
2023-04-28T03:26:00.602Z,20.44
2023-04-28T03:27:22.501Z,20.59
2023-04-28T03:28:46.162Z,20.27
2023-04-28T03:30:16.218Z,20.44
2023-04-28T03:31:38.582Z,19.84
2023-04-28T03:33:03.092Z,19.78
2023-04-28T03:34:36.861Z,20.14
2023-04-28T03:36:02.615Z,20.34
2023-04-28T03:37:27.205Z,20.71
2023-04-28T03:39:00.511Z,20.68
2023-04-28T03:40:29.729Z,21.48
2023-04-28T03:42:06.253Z,21.92
2023-04-28T03:43:58.434Z,28.51
2023-04-28T03:45:30.724Z,28.58
2023-04-28T03:46:52.490Z,28.70
2023-04-28T03:48:26.305Z,26.95
2023-04-28T03:49:55.143Z,38.14
2023-04-28T03:51:36.793Z,27.46
2023-04-28T03:53:10.012Z,31.51
2023-04-28T03:54:41.593Z,36.83
2023-04-28T03:56:03.048Z,33.10
2023-04-28T03:57:25.100Z,27.19
2023-04-28T03:58:54.223Z,35.82
2023-04-28T04:00:19.893Z,26.66
2023-04-28T04:01:49.327Z,39.81
2023-04-28T04:03:13.337Z,58.66
2023-04-28T04:04:39.102Z,42.13
2023-04-28T04:06:04.019Z,30.73
2023-04-28T04:07:37.907Z,30.08
2023-04-28T04:09:02.266Z,28.01
2023-04-28T04:10:27.788Z,27.15
2023-04-28T04:11:57.186Z,27.85
2023-04-28T04:13:19.313Z,27.18
2023-04-28T04:14:43.519Z,28.09
2023-04-28T04:16:18.532Z,29.70
2023-04-28T04:17:40.922Z,30.41
2023-04-28T04:19:04.522Z,29.20
2023-04-28T04:20:55.913Z,27.66
2023-04-28T04:22:30.109Z,26.60
2023-04-28T04:23:51.488Z,27.28
2023-04-28T04:25:12.978Z,33.83
2023-04-28T04:26:35.259Z,29.29
2023-04-28T04:28:04.924Z,27.49
2023-04-28T04:29:35.250Z,27.82
2023-04-28T04:31:04.253Z,29.18
2023-04-28T04:32:45.101Z,28.18
2023-04-28T04:34:21.283Z,28.52
2023-04-28T04:35:55.453Z,28.75
2023-04-28T04:37:30.034Z,28.81
2023-04-28T04:39:05.973Z,28.31
2023-04-28T04:40:50.225Z,30.40
2023-04-28T04:42:24.159Z,26.61
2023-04-28T04:44:13.136Z,30.28
2023-04-28T04:45:49.907Z,26.20
2023-04-28T04:47:25.780Z,25.46
2023-04-28T04:48:52.117Z,27.74
2023-04-28T04:50:37.926Z,27.84
2023-04-28T04:52:19.028Z,27.72
2023-04-28T04:53:45.872Z,25.82
2023-04-28T04:55:19.163Z,28.27
2023-04-28T04:56:52.758Z,29.56
2023-04-28T04:58:36.196Z,29.57
2023-04-28T05:01:05.912Z,22.07
2023-04-28T05:02:36.983Z,17.98
2023-04-28T05:04:11.335Z,18.48
2023-04-28T05:05:54.547Z,15.74
2023-04-28T05:07:33.298Z,19.31
2023-04-28T05:09:08.386Z,19.03
2023-04-28T05:10:35.389Z,17.25
2023-04-28T05:11:57.929Z,16.33
2023-04-28T05:13:31.928Z,17.20
2023-04-28T05:15:09.967Z,20.09
2023-04-28T05:16:34.346Z,18.32
2023-04-28T05:18:16.788Z,17.73
2023-04-28T05:20:00.553Z,17.26
2023-04-28T05:21:26.899Z,18.31
2023-04-28T05:22:51.268Z,14.41
2023-04-28T05:24:22.249Z,16.54
2023-04-28T05:26:12.552Z,15.26
2023-04-28T05:27:41.772Z,13.87
2023-04-28T05:29:10.437Z,13.02
2023-04-28T05:30:45.177Z,13.96
2023-04-28T05:32:22.485Z,13.62
2023-04-28T05:34:07.752Z,14.34
2023-04-28T05:35:32.011Z,14.23
2023-04-28T05:36:53.779Z,14.21
2023-04-28T05:38:34.999Z,14.22
2023-04-28T05:40:08.087Z,14.95
2023-04-28T05:41:43.846Z,15.61
2023-04-28T05:43:19.171Z,15.16
2023-04-28T05:45:14.550Z,15.81
2023-04-28T05:46:56.630Z,15.59
2023-04-28T05:48:43.991Z,15.10
2023-04-28T05:50:20.115Z,13.66
2023-04-28T05:51:49.109Z,14.50
2023-04-28T05:53:20.829Z,12.54
2023-04-28T05:55:05.859Z,13.29
2023-04-28T05:56:37.742Z,12.93
2023-04-28T05:58:18.691Z,14.08
2023-04-28T05:59:52.165Z,13.18
2023-04-28T06:01:33.046Z,12.36
2023-04-28T06:03:18.657Z,11.20
2023-04-28T06:04:52.919Z,11.39
2023-04-28T06:06:14.981Z,11.49
2023-04-28T06:08:09.520Z,12.54
2023-04-28T06:09:45.707Z,13.44
2023-04-28T06:11:11.818Z,11.95
2023-04-28T06:12:39.351Z,10.95
2023-04-28T06:16:24.379Z,14.27
2023-04-28T06:20:14.562Z,13.43
2023-04-28T06:21:54.687Z,13.10
2023-04-28T06:23:18.510Z,10.42
2023-04-28T06:25:00.999Z,9.02
2023-04-28T06:26:41.826Z,8.05
2023-04-28T06:28:27.597Z,7.91
2023-04-28T06:29:56.841Z,9.06
2023-04-28T06:31:42.155Z,8.49
2023-04-28T06:33:06.654Z,9.45
2023-04-28T06:34:41.554Z,9.10
2023-04-28T06:36:26.219Z,21.41
2023-04-28T06:38:11.065Z,19.15
2023-04-28T06:39:43.141Z,11.07
2023-04-28T06:41:25.512Z,8.18
2023-04-28T06:42:57.542Z,9.48
2023-04-28T06:44:28.734Z,8.92
2023-04-28T06:45:51.180Z,7.25
2023-04-28T06:47:36.233Z,7.76
2023-04-28T06:49:11.725Z,8.10
2023-04-28T06:50:44.066Z,9.14
2023-04-28T06:52:07.772Z,8.36
2023-04-28T06:53:44.251Z,7.98
2023-04-28T06:55:17.731Z,8.89
2023-04-28T06:56:39.940Z,7.38
2023-04-28T06:58:13.107Z,7.96
2023-04-28T06:59:37.511Z,7.74
2023-04-28T07:01:06.857Z,7.20
2023-04-28T07:02:36.515Z,8.68
2023-04-28T07:04:06.444Z,6.93
2023-04-28T07:05:40.694Z,6.93
2023-04-28T07:07:09.754Z,6.78
2023-04-28T07:08:34.436Z,7.31
2023-04-28T07:09:56.232Z,7.12
2023-04-28T07:11:37.236Z,6.72
2023-04-28T07:13:22.149Z,7.05
2023-04-28T07:14:55.738Z,7.19
2023-04-28T07:16:29.535Z,7.43
2023-04-28T07:18:04.963Z,6.82
2023-04-28T07:19:31.525Z,7.11
2023-04-28T07:20:55.585Z,6.29
2023-04-28T07:22:28.749Z,6.52
2023-04-28T07:24:04.285Z,6.21
2023-04-28T07:25:39.693Z,7.66
2023-04-28T07:27:20.294Z,7.14
2023-04-28T07:28:44.911Z,7.51
2023-04-28T07:30:26.516Z,7.68
2023-04-28T07:32:01.204Z,7.25
2023-04-28T07:33:34.545Z,7.80
2023-04-28T07:35:07.754Z,7.16
2023-04-28T07:36:29.770Z,7.36
2023-04-28T07:37:55.710Z,7.53
2023-04-28T07:39:19.855Z,8.26
2023-04-28T07:40:56.171Z,7.80
2023-04-28T07:42:20.144Z,8.15
2023-04-28T07:43:53.423Z,8.12
2023-04-28T07:45:28.986Z,7.65
2023-04-28T07:47:14.082Z,7.43
2023-04-28T07:48:45.978Z,7.21
2023-04-28T07:50:09.902Z,7.15
2023-04-28T07:51:57.129Z,6.80
2023-04-28T07:53:21.081Z,6.16
2023-04-28T07:55:06.009Z,6.59
2023-04-28T07:56:42.999Z,6.72
2023-04-28T07:58:16.250Z,6.59
2023-04-28T07:59:41.015Z,6.57
2023-04-28T08:01:16.196Z,6.73
2023-04-28T08:02:38.022Z,6.97
2023-04-28T08:04:23.705Z,6.59
2023-04-28T08:06:09.618Z,7.38
2023-04-28T08:07:54.993Z,7.25
2023-04-28T08:09:41.700Z,6.40
2023-04-28T08:11:26.358Z,6.43
2023-04-28T08:13:00.118Z,5.92
2023-04-28T08:14:49.356Z,6.89
2023-04-28T08:18:23.184Z,6.98
2023-04-28T08:19:59.067Z,6.85
2023-04-28T08:21:46.800Z,6.98
2023-04-28T08:23:36.269Z,7.78
2023-04-28T08:25:21.522Z,7.90
2023-04-28T08:27:13.848Z,7.44
2023-04-28T08:28:51.028Z,7.70
2023-04-28T08:30:24.494Z,7.81
2023-04-28T08:32:10.600Z,7.10
2023-04-28T08:33:51.726Z,7.31
2023-04-28T08:35:32.400Z,7.32
2023-04-28T08:37:17.413Z,7.44
2023-04-28T08:39:13.045Z,7.86
2023-04-28T08:40:38.597Z,7.92
2023-04-28T08:42:14.703Z,8.28
2023-04-28T08:43:46.196Z,7.74
2023-04-28T08:45:22.039Z,8.48
2023-04-28T08:46:58.357Z,7.93
2023-04-28T08:48:34.300Z,8.02
2023-04-28T08:50:14.508Z,8.01
2023-04-28T08:51:56.818Z,8.41
2023-04-28T08:55:18.042Z,9.12
2023-04-28T08:56:51.398Z,9.03
2023-04-28T08:58:36.789Z,9.57
2023-04-28T09:00:10.289Z,9.44
2023-04-28T09:01:46.837Z,8.97
2023-04-28T09:03:35.165Z,10.38
2023-04-28T09:04:57.861Z,11.10
2023-04-28T09:06:24.329Z,11.26
2023-04-28T09:08:05.067Z,10.36
2023-04-28T09:09:36.988Z,10.38
2023-04-28T09:11:05.384Z,9.28
2023-04-28T09:12:39.356Z,9.67
2023-04-28T09:14:12.904Z,9.75
2023-04-28T09:15:46.334Z,10.88
2023-04-28T09:17:22.198Z,10.12
2023-04-28T09:19:05.496Z,10.11
2023-04-28T09:20:39.053Z,10.67
2023-04-28T09:22:26.060Z,10.80
2023-04-28T09:23:49.275Z,10.04
2023-04-28T09:25:33.172Z,10.87
2023-04-28T09:26:55.780Z,11.17
2023-04-28T09:28:37.157Z,10.68
2023-04-28T09:30:10.766Z,9.92
2023-04-28T09:31:44.898Z,10.65
2023-04-28T09:33:10.718Z,9.62
2023-04-28T09:34:53.655Z,10.44
2023-04-28T09:36:27.165Z,11.61
2023-04-28T09:38:00.498Z,13.70
2023-04-28T09:39:24.306Z,13.46
2023-04-28T09:40:57.592Z,11.02
2023-04-28T09:42:31.011Z,11.04
2023-04-28T09:44:12.301Z,11.60
2023-04-28T09:45:34.560Z,10.30
2023-04-28T09:47:10.202Z,11.39
2023-04-28T09:48:32.236Z,10.18
2023-04-28T09:50:07.620Z,10.10
2023-04-28T09:51:58.394Z,10.78
2023-04-28T09:53:30.380Z,10.28
2023-04-28T09:54:56.810Z,12.72
2023-04-28T09:56:20.643Z,12.19
2023-04-28T09:58:14.153Z,9.92
2023-04-28T09:59:43.664Z,10.17
2023-04-28T10:01:16.426Z,9.83
2023-04-28T10:02:46.171Z,9.99
2023-04-28T10:04:15.771Z,10.13
2023-04-28T10:05:48.364Z,10.33
2023-04-28T10:07:21.514Z,10.02
2023-04-28T10:08:50.908Z,10.41
2023-04-28T10:10:27.211Z,10.14
2023-04-28T10:11:49.301Z,10.79
2023-04-28T10:13:25.239Z,9.63
2023-04-28T10:15:03.337Z,9.79
2023-04-28T10:16:32.970Z,9.89
2023-04-28T10:18:02.177Z,10.33
2023-04-28T10:19:27.302Z,9.98
2023-04-28T10:20:48.853Z,10.17
2023-04-28T10:22:10.068Z,10.52
2023-04-28T10:23:45.454Z,10.02
2023-04-28T10:25:14.534Z,9.85
2023-04-28T10:26:39.147Z,11.04
2023-04-28T10:28:10.485Z,10.73
2023-04-28T10:29:33.928Z,10.43
2023-04-28T10:31:15.077Z,10.81
2023-04-28T10:32:37.368Z,10.34
2023-04-28T10:34:10.880Z,10.99
2023-04-28T10:35:59.429Z,10.94
2023-04-28T10:37:44.606Z,11.03
2023-04-28T10:39:17.738Z,11.92
2023-04-28T10:40:39.725Z,11.35
2023-04-28T10:42:01.877Z,11.22
2023-04-28T10:43:23.684Z,11.48
2023-04-28T10:44:45.745Z,11.67
2023-04-28T10:46:07.250Z,11.14
2023-04-28T10:47:52.434Z,11.61
2023-04-28T10:49:17.051Z,12.46
2023-04-28T10:50:53.307Z,11.99
2023-04-28T10:52:15.025Z,11.43
2023-04-28T10:53:37.028Z,11.94
2023-04-28T10:55:22.823Z,11.82
2023-04-28T10:56:56.878Z,11.70
2023-04-28T10:58:20.941Z,11.67
2023-04-28T10:59:52.492Z,12.16
2023-04-28T11:01:26.037Z,12.21
2023-04-28T11:02:49.582Z,12.41
2023-04-28T11:04:19.070Z,12.59
2023-04-28T11:05:41.608Z,11.53
2023-04-28T11:07:03.701Z,11.76
2023-04-28T11:08:28.273Z,12.67
2023-04-28T11:10:09.549Z,14.26
2023-04-28T11:11:34.916Z,13.60
2023-04-28T11:13:07.953Z,12.83
2023-04-28T11:14:45.187Z,13.11
2023-04-28T11:16:07.040Z,13.45
2023-04-28T11:17:29.254Z,13.58
2023-04-28T11:18:54.411Z,13.12
2023-04-28T11:20:29.910Z,12.05
2023-04-28T11:22:01.465Z,12.27
2023-04-28T11:23:23.785Z,12.19
2023-04-28T11:25:08.075Z,11.96
2023-04-28T11:26:37.433Z,12.04
2023-04-28T11:28:10.854Z,11.55
2023-04-28T11:29:47.112Z,12.02
2023-04-28T11:31:21.210Z,12.40
2023-04-28T11:33:07.046Z,11.57
2023-04-28T11:34:48.112Z,11.57
2023-04-28T11:36:10.002Z,11.71
2023-04-28T11:37:44.227Z,12.36
2023-04-28T11:39:05.316Z,12.83
2023-04-28T11:40:27.394Z,12.68
2023-04-28T11:41:49.107Z,11.94
2023-04-28T11:43:11.118Z,11.54
2023-04-28T11:44:37.697Z,11.45
2023-04-28T11:46:11.430Z,11.87
2023-04-28T11:47:37.959Z,11.43
2023-04-28T11:49:14.250Z,11.96
2023-04-28T11:50:45.680Z,12.25
2023-04-28T11:52:30.433Z,11.83
2023-04-28T11:54:09.750Z,11.38
2023-04-28T11:55:50.600Z,12.02
2023-04-28T11:57:19.858Z,11.92
2023-04-28T11:58:49.111Z,11.51
2023-04-28T12:00:11.636Z,11.41
2023-04-28T12:01:44.871Z,11.79
2023-04-28T12:03:09.143Z,11.71
2023-04-28T12:04:38.670Z,12.31
2023-04-28T12:06:12.052Z,11.81
2023-04-28T12:07:36.279Z,12.28
2023-04-28T12:09:16.761Z,11.12
2023-04-28T12:10:38.658Z,11.46
2023-04-28T12:12:11.939Z,11.65
2023-04-28T12:13:36.197Z,12.03
2023-04-28T12:15:22.181Z,11.07
2023-04-28T12:16:49.610Z,10.70
2023-04-28T12:18:20.568Z,11.74
2023-04-28T12:19:57.406Z,12.54
2023-04-28T12:21:22.077Z,11.95
2023-04-28T12:22:43.546Z,11.61
2023-04-28T12:24:07.706Z,11.73
2023-04-28T12:25:51.590Z,11.50
2023-04-28T12:27:15.512Z,11.39
2023-04-28T12:28:40.258Z,11.76
2023-04-28T12:30:11.635Z,12.15
2023-04-28T12:31:48.821Z,10.81
2023-04-28T12:33:20.006Z,12.06
2023-04-28T12:34:41.919Z,11.58
2023-04-28T12:36:13.475Z,11.80
2023-04-28T12:37:43.017Z,12.03
2023-04-28T12:39:18.952Z,10.85
2023-04-28T12:40:52.906Z,11.28
2023-04-28T12:42:26.248Z,11.04
2023-04-28T12:43:48.294Z,11.74
2023-04-28T12:45:10.286Z,11.12
2023-04-28T12:46:33.497Z,10.59
2023-04-28T12:48:04.591Z,11.56
2023-04-28T12:49:28.854Z,11.16
2023-04-28T12:51:05.386Z,11.44
2023-04-28T12:52:29.506Z,11.76
2023-04-28T12:54:13.136Z,11.24
2023-04-28T12:55:54.320Z,11.89
2023-04-28T12:57:23.331Z,12.65
2023-04-28T12:58:45.190Z,12.94
2023-04-28T13:00:21.062Z,12.34
2023-04-28T13:01:56.768Z,12.81
2023-04-28T13:03:30.754Z,11.24
2023-04-28T13:05:11.921Z,11.56
2023-04-28T13:06:56.314Z,11.49
2023-04-28T13:08:34.008Z,10.22
2023-04-28T13:09:58.376Z,10.13
2023-04-28T13:11:41.469Z,10.31
2023-04-28T13:13:03.314Z,10.09
2023-04-28T13:14:25.255Z,9.38
2023-04-28T13:15:58.822Z,10.28
2023-04-28T13:17:34.959Z,9.84
2023-04-28T13:19:15.596Z,9.99
2023-04-28T13:20:49.447Z,10.42
2023-04-28T13:22:23.209Z,10.42
2023-04-28T13:24:04.224Z,10.31
2023-04-28T13:25:58.477Z,10.14
2023-04-28T13:27:41.910Z,10.10
2023-04-28T13:29:05.252Z,10.51
2023-04-28T13:30:26.770Z,10.23
2023-04-28T13:32:11.804Z,9.87
2023-04-28T13:33:47.696Z,11.15
2023-04-28T13:35:21.191Z,11.15
2023-04-28T13:36:55.389Z,10.63
2023-04-28T13:38:17.258Z,11.39
2023-04-28T13:39:53.509Z,10.62
2023-04-28T13:41:15.347Z,11.24
2023-04-28T13:42:51.303Z,11.20
2023-04-28T13:44:24.820Z,11.26
2023-04-28T13:45:51.103Z,10.24
2023-04-28T13:47:12.511Z,9.74
2023-04-28T13:48:35.128Z,9.71
2023-04-28T13:50:08.687Z,10.35
2023-04-28T13:51:58.464Z,9.60
2023-04-28T13:53:43.806Z,9.62
2023-04-28T13:55:28.725Z,10.18
2023-04-28T13:57:02.824Z,10.07
2023-04-28T13:58:45.043Z,9.80
2023-04-28T14:00:06.977Z,9.63
2023-04-28T14:01:41.083Z,9.78
2023-04-28T14:03:25.564Z,9.77
2023-04-28T14:05:00.681Z,9.91
2023-04-28T14:06:30.286Z,10.53
2023-04-28T14:08:16.860Z,10.38
2023-04-28T14:09:49.319Z,10.35
2023-04-28T14:11:13.411Z,10.01
2023-04-28T14:12:47.088Z,10.43
2023-04-28T14:14:20.485Z,10.06
2023-04-28T14:15:59.972Z,10.27
2023-04-28T14:17:46.335Z,10.26
2023-04-28T14:19:38.548Z,9.78
2023-04-28T14:21:00.208Z,9.80
2023-04-28T14:22:36.214Z,10.04
2023-04-28T14:24:22.118Z,9.57
2023-04-28T14:25:56.141Z,9.67
2023-04-28T14:27:29.697Z,9.40
2023-04-28T14:29:09.960Z,13.48
2023-04-28T14:31:03.432Z,8.77
2023-04-28T14:32:43.087Z,9.85
2023-04-28T14:34:05.175Z,9.31
2023-04-28T14:35:31.597Z,9.44
2023-04-28T14:37:02.866Z,8.75
2023-04-28T14:38:46.809Z,9.01
2023-04-28T14:40:22.833Z,9.60
2023-04-28T14:42:04.380Z,8.88
2023-04-28T14:43:38.710Z,8.82
2023-04-28T14:45:12.345Z,10.00
2023-04-28T14:46:34.548Z,10.09
2023-04-28T14:48:10.240Z,10.44
2023-04-28T14:49:55.326Z,10.84
2023-04-28T14:51:16.849Z,10.73
2023-04-28T14:52:53.060Z,10.69
2023-04-28T14:54:33.736Z,10.04
2023-04-28T14:56:17.952Z,10.16
2023-04-28T14:57:52.751Z,9.80
2023-04-28T14:59:14.290Z,9.95
2023-04-28T15:00:50.453Z,10.21
2023-04-28T15:02:38.109Z,9.92
2023-04-28T15:03:59.823Z,10.39
2023-04-28T15:05:33.207Z,10.35
2023-04-28T15:07:08.868Z,10.40
2023-04-28T15:08:50.668Z,9.97
2023-04-28T15:10:24.336Z,9.40
2023-04-28T15:11:46.313Z,10.56
2023-04-28T15:13:08.340Z,10.52
2023-04-28T15:14:44.460Z,9.81
2023-04-28T15:16:29.240Z,9.64
2023-04-28T15:18:01.243Z,10.03
2023-04-28T15:19:47.478Z,10.70
2023-04-28T15:21:20.864Z,10.24
2023-04-28T15:22:53.270Z,10.56
2023-04-28T15:24:26.895Z,9.98
2023-04-28T15:26:01.588Z,10.19
2023-04-28T15:27:30.704Z,10.21
2023-04-28T15:29:04.792Z,10.38
2023-04-28T15:30:34.354Z,10.16
2023-04-28T15:32:03.608Z,10.21
2023-04-28T15:33:25.698Z,9.61
2023-04-28T15:34:57.295Z,9.44
2023-04-28T15:36:21.484Z,10.14
2023-04-28T15:38:05.127Z,10.74
2023-04-28T15:39:28.560Z,10.49
2023-04-28T15:40:50.359Z,10.66
2023-04-28T15:42:31.467Z,10.73
2023-04-28T15:44:04.974Z,11.26
2023-04-28T15:45:37.196Z,11.89
2023-04-28T15:47:10.677Z,11.60
2023-04-28T15:48:32.774Z,12.17
2023-04-28T15:50:16.987Z,11.97
2023-04-28T15:51:59.812Z,12.65
2023-04-28T15:53:53.424Z,13.45
2023-04-28T15:55:34.461Z,12.95
2023-04-28T15:57:01.457Z,11.97
2023-04-28T15:58:48.006Z,12.45
2023-04-28T16:00:17.015Z,11.30
2023-04-28T16:01:53.217Z,11.44
2023-04-28T16:03:26.865Z,13.52
2023-04-28T16:05:10.655Z,13.72
2023-04-28T16:06:35.121Z,11.21
2023-04-28T16:08:19.947Z,11.47
2023-04-28T16:09:56.403Z,11.31
2023-04-28T16:11:25.764Z,11.62
2023-04-28T16:13:10.745Z,11.87
2023-04-28T16:14:36.988Z,11.83
2023-04-28T16:16:11.973Z,11.74
2023-04-28T16:17:53.205Z,12.79
2023-04-28T16:19:29.407Z,12.38
2023-04-28T16:20:51.811Z,11.62
2023-04-28T16:22:25.292Z,11.77
2023-04-28T16:23:46.916Z,11.11
2023-04-28T16:25:10.706Z,11.25
2023-04-28T16:26:32.871Z,10.80
2023-04-28T16:27:57.280Z,11.75
2023-04-28T16:29:45.001Z,12.69
2023-04-28T16:31:20.340Z,15.73
2023-04-28T16:32:42.731Z,17.40
2023-04-28T16:34:18.718Z,13.35
2023-04-28T16:35:59.745Z,11.37
2023-04-28T16:37:33.351Z,13.08
2023-04-28T16:38:57.932Z,13.07
2023-04-28T16:40:22.010Z,13.24
2023-04-28T16:42:07.192Z,13.09
2023-04-28T16:43:31.849Z,12.15
2023-04-28T16:44:53.817Z,12.21
2023-04-28T16:46:15.120Z,12.72
2023-04-28T16:47:38.045Z,12.90
2023-04-28T16:49:23.300Z,12.59
2023-04-28T16:50:56.396Z,12.38
2023-04-28T16:52:50.031Z,12.37
2023-04-28T16:54:44.499Z,12.34
2023-04-28T16:56:20.308Z,12.89
2023-04-28T16:58:05.534Z,12.23
2023-04-28T16:59:51.165Z,14.60
2023-04-28T17:01:15.383Z,14.45
2023-04-28T17:02:42.146Z,14.58
2023-04-28T17:04:27.372Z,13.48
2023-04-28T17:05:52.175Z,13.13
2023-04-28T17:07:25.762Z,12.94
2023-04-28T17:08:54.798Z,12.78
2023-04-28T17:10:25.973Z,12.78
2023-04-28T17:11:52.824Z,13.48
2023-04-28T17:13:28.940Z,14.26
2023-04-28T17:15:02.092Z,13.68
2023-04-28T17:16:55.699Z,14.55
2023-04-28T17:18:36.747Z,14.94
2023-04-28T17:20:10.410Z,15.10
2023-04-28T17:22:05.520Z,14.99
2023-04-28T17:23:34.774Z,16.17
2023-04-28T17:25:19.533Z,17.40
2023-04-28T17:27:04.556Z,15.74
2023-04-28T17:28:58.524Z,16.26
2023-04-28T17:30:38.369Z,14.79
2023-04-28T17:32:11.834Z,15.05
2023-04-28T17:33:57.172Z,13.52
2023-04-28T17:35:33.196Z,13.37
2023-04-28T17:37:18.464Z,13.88
2023-04-28T17:39:13.185Z,14.12
2023-04-28T17:40:48.703Z,14.38
2023-04-28T17:42:19.819Z,14.69
2023-04-28T17:44:02.527Z,14.37
2023-04-28T17:45:48.651Z,14.98
2023-04-28T17:47:43.536Z,16.17
2023-04-28T17:49:16.709Z,18.34
2023-04-28T17:50:50.127Z,19.61
2023-04-28T17:52:23.905Z,17.58
2023-04-28T17:54:09.317Z,16.26
2023-04-28T17:55:59.535Z,14.79
2023-04-28T17:57:44.916Z,14.86
2023-04-28T17:59:18.447Z,15.51
2023-04-28T18:00:51.779Z,14.11
2023-04-28T18:02:27.214Z,14.27
2023-04-28T18:03:58.911Z,14.38
2023-04-28T18:05:23.079Z,14.13
2023-04-28T18:06:54.666Z,14.84
2023-04-28T18:08:23.731Z,17.08
2023-04-28T18:09:57.270Z,18.10
2023-04-28T18:11:21.800Z,19.13
2023-04-28T18:13:02.291Z,20.52
2023-04-28T18:14:28.469Z,25.29
2023-04-28T18:16:13.604Z,37.60
2023-04-28T18:17:49.296Z,45.37
2023-04-28T18:19:10.856Z,46.42
2023-04-28T18:20:47.253Z,45.85
2023-04-28T18:22:15.932Z,41.22
2023-04-28T18:23:37.875Z,38.70
2023-04-28T18:25:18.585Z,36.04
2023-04-28T18:27:00.501Z,34.75
2023-04-28T18:28:35.264Z,32.70
2023-04-28T18:29:59.084Z,29.81
2023-04-28T18:31:44.219Z,29.54
2023-04-28T18:33:29.940Z,26.52
2023-04-28T18:35:15.267Z,27.76
2023-04-28T18:36:51.373Z,26.42
2023-04-28T18:38:36.818Z,27.60
2023-04-28T18:40:22.276Z,28.68
2023-04-28T18:41:46.972Z,29.06
2023-04-28T18:43:11.235Z,28.72
2023-04-28T18:44:47.676Z,29.38
2023-04-28T18:46:21.219Z,27.56
2023-04-28T18:47:45.110Z,28.59
2023-04-28T18:49:25.680Z,28.16
2023-04-28T18:50:49.770Z,28.76
2023-04-28T18:52:30.445Z,30.82
2023-04-28T18:54:16.255Z,31.57
2023-04-28T18:55:56.907Z,30.96
2023-04-28T18:57:21.118Z,31.39
2023-04-28T18:58:57.499Z,34.50
2023-04-28T19:00:43.139Z,40.37
2023-04-28T19:02:16.467Z,40.62
2023-04-28T19:03:38.481Z,42.28
2023-04-28T19:05:03.160Z,41.73
2023-04-28T19:06:32.295Z,38.15
2023-04-28T19:08:13.076Z,35.51
2023-04-28T19:09:37.803Z,37.63
2023-04-28T19:11:13.368Z,37.98
2023-04-28T19:12:35.185Z,37.62
2023-04-28T19:13:57.247Z,37.88
2023-04-28T19:15:33.543Z,38.82
2023-04-28T19:16:55.755Z,43.06
2023-04-28T19:18:19.708Z,41.74
2023-04-28T19:19:43.872Z,39.75
2023-04-28T19:21:17.149Z,38.11
2023-04-28T19:22:40.393Z,31.25
2023-04-28T19:24:09.486Z,26.17
2023-04-28T19:25:33.683Z,24.89
2023-04-28T19:27:05.564Z,22.43
2023-04-28T19:28:46.322Z,20.67
2023-04-28T19:30:15.792Z,23.16
2023-04-28T19:31:49.230Z,28.39
2023-04-28T19:33:18.267Z,23.33
2023-04-28T19:34:42.472Z,21.33
2023-04-28T19:36:12.180Z,19.84
2023-04-28T19:37:34.914Z,18.79
2023-04-28T19:39:01.251Z,18.40
2023-04-28T19:40:23.070Z,19.09
2023-04-28T19:41:52.407Z,18.11
2023-04-28T19:43:16.227Z,19.52
2023-04-28T19:44:57.755Z,19.45
2023-04-28T19:46:26.711Z,18.92
2023-04-28T19:47:51.184Z,19.46
2023-04-28T19:49:17.661Z,19.95
2023-04-28T19:50:51.271Z,20.85
2023-04-28T19:52:25.074Z,19.55
2023-04-28T19:53:48.655Z,20.92
2023-04-28T19:55:20.098Z,20.59
2023-04-28T19:56:41.779Z,21.01
2023-04-28T19:58:05.870Z,19.64
2023-04-28T19:59:29.799Z,20.16
2023-04-28T20:00:59.159Z,19.79
2023-04-28T20:02:21.503Z,19.49
2023-04-28T20:03:45.724Z,19.73
2023-04-28T20:05:15.158Z,18.08
2023-04-28T20:06:51.561Z,17.75
2023-04-28T20:08:27.546Z,18.48